createdAt,value
2022-10-28T00:00:07.384Z,69.70
2022-10-28T00:01:11.774Z,69.53
2022-10-28T00:02:15.981Z,69.10
2022-10-28T00:03:18.566Z,69.70
2022-10-28T00:04:21.870Z,69.66
2022-10-28T00:05:23.757Z,69.81
2022-10-28T00:06:29.119Z,69.66
2022-10-28T00:07:30.885Z,69.35
2022-10-28T00:08:34.406Z,69.41
2022-10-28T00:09:36.182Z,69.60
2022-10-28T00:10:39.187Z,69.67
2022-10-28T00:11:41.186Z,69.93
2022-10-28T00:12:44.105Z,69.01
2022-10-28T00:13:46.475Z,69.16
2022-10-28T00:14:49.332Z,69.13
2022-10-28T00:15:51.107Z,69.23
2022-10-28T00:16:53.901Z,69.58
2022-10-28T00:17:57.058Z,69.54
2022-10-28T00:19:02.089Z,69.13
2022-10-28T00:20:04.500Z,69.20
2022-10-28T00:21:09.991Z,68.68
2022-10-28T00:22:11.775Z,69.53
2022-10-28T00:23:14.539Z,68.97
2022-10-28T00:24:16.340Z,69.71
2022-10-28T00:25:24.499Z,69.01
2022-10-28T00:26:28.592Z,69.24
2022-10-28T00:27:33.212Z,69.08
2022-10-28T00:28:35.272Z,69.19
2022-10-28T00:29:38.055Z,69.29
2022-10-28T00:30:39.952Z,68.82
2022-10-28T00:31:43.146Z,69.07
2022-10-28T00:32:45.007Z,69.26
2022-10-28T00:33:50.097Z,68.34
2022-10-28T00:34:51.921Z,69.26
2022-10-28T00:35:54.706Z,69.06
2022-10-28T00:36:56.538Z,69.35
2022-10-28T00:37:59.362Z,68.90
2022-10-28T00:39:02.375Z,69.22
2022-10-28T00:40:06.113Z,69.18
2022-10-28T00:41:08.634Z,68.75
2022-10-28T00:42:11.840Z,69.19
2022-10-28T00:43:13.655Z,69.13
2022-10-28T00:44:54.310Z,69.04
2022-10-28T00:45:56.422Z,69.35
2022-10-28T00:46:59.533Z,69.20
2022-10-28T00:48:04.753Z,68.81
2022-10-28T00:49:23.090Z,69.26
2022-10-28T00:50:38.889Z,69.42
2022-10-28T00:51:42.939Z,69.19
2022-10-28T00:52:47.096Z,69.60
2022-10-28T00:53:52.073Z,69.06
2022-10-28T00:54:55.924Z,68.85
2022-10-28T00:56:02.169Z,68.67
2022-10-28T00:57:10.681Z,69.22
2022-10-28T00:58:13.694Z,68.49
2022-10-28T00:59:22.434Z,69.20
2022-10-28T01:00:26.527Z,69.22
2022-10-28T01:01:28.703Z,68.88
2022-10-28T01:02:33.960Z,69.16
2022-10-28T01:03:37.330Z,68.71
2022-10-28T01:04:42.571Z,69.09
2022-10-28T01:05:49.311Z,68.65
2022-10-28T01:06:52.850Z,68.41
2022-10-28T01:07:58.754Z,68.80
2022-10-28T01:09:02.195Z,68.55
2022-10-28T01:10:04.389Z,68.94
2022-10-28T01:11:23.809Z,68.62
2022-10-28T01:12:35.410Z,69.15
2022-10-28T01:13:50.079Z,68.64
2022-10-28T01:15:05.825Z,68.44
2022-10-28T01:16:18.612Z,69.18
2022-10-28T01:17:32.824Z,69.45
2022-10-28T01:18:46.572Z,69.20
2022-10-28T01:20:22.799Z,69.35
2022-10-28T01:21:58.202Z,69.31
2022-10-28T01:23:07.536Z,68.90
2022-10-28T01:24:22.759Z,69.11
2022-10-28T01:25:48.270Z,69.02
2022-10-28T01:27:15.194Z,68.61
2022-10-28T01:28:42.616Z,68.38
2022-10-28T01:30:05.934Z,68.50
2022-10-28T01:31:26.648Z,68.79
2022-10-28T01:32:39.826Z,68.47
2022-10-28T01:33:51.207Z,68.51
2022-10-28T01:35:02.117Z,68.51
2022-10-28T01:36:11.506Z,69.08
2022-10-28T01:37:19.549Z,68.65
2022-10-28T01:38:31.637Z,68.31
2022-10-28T01:39:37.949Z,69.10
2022-10-28T01:40:48.221Z,68.82
2022-10-28T01:41:54.129Z,68.46
2022-10-28T01:43:04.321Z,69.04
2022-10-28T01:44:08.990Z,68.93
2022-10-28T01:45:17.057Z,69.02
2022-10-28T01:46:26.110Z,68.69
2022-10-28T01:47:32.994Z,68.53
2022-10-28T01:48:40.110Z,68.71
2022-10-28T01:49:50.277Z,68.36
2022-10-28T01:50:57.855Z,68.98
2022-10-28T01:52:05.223Z,68.52
2022-10-28T01:53:14.014Z,69.02
2022-10-28T01:54:19.173Z,68.83
2022-10-28T01:55:26.624Z,68.50
2022-10-28T01:56:33.137Z,69.04
2022-10-28T01:57:38.954Z,68.57
2022-10-28T01:58:41.562Z,69.06
2022-10-28T01:59:45.786Z,68.42
2022-10-28T02:00:49.298Z,69.19
2022-10-28T02:01:54.498Z,68.88
2022-10-28T02:02:56.827Z,68.94
2022-10-28T02:03:59.957Z,68.64
2022-10-28T02:05:27.023Z,68.74
2022-10-28T02:06:32.770Z,68.44
2022-10-28T02:07:34.922Z,69.14
2022-10-28T02:08:51.431Z,69.02
2022-10-28T02:10:05.825Z,68.58
2022-10-28T02:11:33.436Z,68.36
2022-10-28T02:12:38.632Z,68.95
2022-10-28T02:13:52.223Z,68.55
2022-10-28T02:15:29.481Z,68.76
2022-10-28T02:16:39.348Z,68.45
2022-10-28T02:17:57.905Z,68.70
2022-10-28T02:19:06.100Z,68.41
2022-10-28T02:20:15.772Z,69.04
2022-10-28T02:21:24.972Z,68.92
2022-10-28T02:22:34.613Z,68.89
2022-10-28T02:23:43.780Z,68.57
2022-10-28T02:24:55.559Z,68.53
2022-10-28T02:26:03.343Z,68.60
2022-10-28T02:27:13.234Z,69.34
2022-10-28T02:28:22.959Z,68.98
2022-10-28T02:29:30.978Z,68.97
2022-10-28T02:30:39.904Z,68.93
2022-10-28T02:31:48.064Z,68.95
2022-10-28T02:32:57.116Z,69.01
2022-10-28T02:34:04.505Z,68.49
2022-10-28T02:35:13.091Z,69.03
2022-10-28T02:36:19.392Z,68.39
2022-10-28T02:37:25.185Z,69.11
2022-10-28T02:38:34.106Z,69.21
2022-10-28T02:39:41.046Z,68.57
2022-10-28T02:40:50.113Z,68.89
2022-10-28T02:41:57.010Z,69.07
2022-10-28T02:43:02.769Z,68.89
2022-10-28T02:44:09.177Z,69.09
2022-10-28T02:45:14.668Z,68.49
2022-10-28T02:46:20.161Z,69.15
2022-10-28T02:47:26.291Z,69.19
2022-10-28T02:48:35.523Z,68.72
2022-10-28T02:49:41.595Z,69.00
2022-10-28T02:50:51.353Z,68.76
2022-10-28T02:51:57.985Z,68.65
2022-10-28T02:53:03.974Z,68.92
2022-10-28T02:54:09.143Z,69.31
2022-10-28T02:55:12.151Z,68.80
2022-10-28T02:56:16.967Z,69.12
2022-10-28T02:57:22.858Z,69.09
2022-10-28T02:58:24.878Z,69.23
2022-10-28T02:59:29.377Z,68.99
2022-10-28T03:00:31.252Z,68.90
2022-10-28T03:01:34.100Z,69.25
2022-10-28T03:02:36.088Z,69.22
2022-10-28T03:03:40.728Z,69.08
2022-10-28T03:04:42.617Z,69.25
2022-10-28T03:05:46.019Z,69.17
2022-10-28T03:06:47.907Z,68.62
2022-10-28T03:07:50.953Z,69.06
2022-10-28T03:08:53.769Z,68.55
2022-10-28T03:09:56.662Z,68.68
2022-10-28T03:10:58.501Z,68.88
2022-10-28T03:12:02.327Z,68.61
2022-10-28T03:13:04.249Z,68.71
2022-10-28T03:14:09.602Z,68.88
2022-10-28T03:15:13.885Z,68.31
2022-10-28T03:16:16.635Z,69.23
2022-10-28T03:17:18.431Z,69.17
2022-10-28T03:18:21.236Z,68.91
2022-10-28T03:19:24.953Z,68.40
2022-10-28T03:20:27.680Z,68.69
2022-10-28T03:21:29.477Z,68.19
2022-10-28T03:22:32.348Z,68.80
2022-10-28T03:23:34.400Z,68.76
2022-10-28T03:24:37.156Z,68.96
2022-10-28T03:25:38.987Z,68.54
2022-10-28T03:26:41.973Z,68.77
2022-10-28T03:27:43.763Z,68.73
2022-10-28T03:28:46.779Z,68.47
2022-10-28T03:29:48.669Z,68.95
2022-10-28T03:30:51.416Z,68.50
2022-10-28T03:31:53.342Z,68.72
2022-10-28T03:32:56.614Z,68.98
2022-10-28T03:33:58.645Z,68.98
2022-10-28T03:35:03.246Z,68.93
2022-10-28T03:36:06.519Z,68.91
2022-10-28T03:37:08.300Z,68.50
2022-10-28T03:38:11.098Z,68.53
2022-10-28T03:39:13.022Z,68.90
2022-10-28T03:40:16.039Z,68.77
2022-10-28T03:41:17.894Z,69.21
2022-10-28T03:42:20.677Z,69.38
2022-10-28T03:43:22.553Z,69.76
2022-10-28T03:44:25.322Z,69.64
2022-10-28T03:45:27.161Z,69.51
2022-10-28T03:46:32.286Z,69.59
2022-10-28T03:47:37.452Z,69.28
2022-10-28T03:48:40.298Z,68.72
2022-10-28T03:49:42.213Z,69.31
2022-10-28T03:50:46.417Z,69.52
2022-10-28T03:51:49.203Z,68.97
2022-10-28T03:52:51.026Z,68.74
2022-10-28T03:53:53.964Z,69.17
2022-10-28T03:54:55.741Z,69.19
2022-10-28T03:56:00.312Z,69.53
2022-10-28T03:57:03.105Z,69.40
2022-10-28T03:58:05.919Z,69.71
2022-10-28T03:59:09.032Z,68.60
2022-10-28T04:00:12.836Z,68.99
2022-10-28T04:01:15.214Z,69.28
2022-10-28T04:02:18.203Z,69.33
2022-10-28T04:03:22.179Z,69.15
2022-10-28T04:04:28.428Z,69.12
2022-10-28T04:05:32.612Z,69.58
2022-10-28T04:06:36.754Z,68.67
2022-10-28T04:07:38.526Z,68.91
2022-10-28T04:08:41.398Z,68.99
2022-10-28T04:09:43.331Z,68.63
2022-10-28T04:10:47.615Z,68.76
2022-10-28T04:11:49.545Z,68.96
2022-10-28T04:12:52.533Z,69.25
2022-10-28T04:13:54.649Z,68.79
2022-10-28T04:14:57.501Z,68.75
2022-10-28T04:15:59.377Z,68.93
2022-10-28T04:17:02.177Z,69.17
2022-10-28T04:18:04.628Z,69.35
2022-10-28T04:19:07.454Z,69.12
2022-10-28T04:20:09.777Z,68.98
2022-10-28T04:21:12.511Z,68.77
2022-10-28T04:22:16.073Z,68.88
2022-10-28T04:23:19.503Z,68.74
2022-10-28T04:24:21.487Z,68.88
2022-10-28T04:25:25.559Z,68.70
2022-10-28T04:26:27.314Z,68.60
2022-10-28T04:27:30.055Z,68.93
2022-10-28T04:28:32.110Z,69.30
2022-10-28T04:29:35.001Z,68.92
2022-10-28T04:30:37.807Z,68.83
2022-10-28T04:31:39.707Z,69.13
2022-10-28T04:32:44.465Z,69.04
2022-10-28T04:33:46.228Z,68.85
2022-10-28T04:34:49.066Z,68.69
2022-10-28T04:35:50.835Z,69.03
2022-10-28T04:36:53.717Z,69.25
2022-10-28T04:37:57.006Z,68.61
2022-10-28T04:39:00.049Z,69.04
2022-10-28T04:40:03.682Z,69.17
2022-10-28T04:41:06.791Z,68.72
2022-10-28T04:42:08.604Z,68.38
2022-10-28T04:43:11.757Z,68.89
2022-10-28T04:44:13.561Z,68.96
2022-10-28T04:45:16.670Z,69.25
2022-10-28T04:46:18.761Z,69.02
2022-10-28T04:47:21.579Z,68.94
2022-10-28T04:48:23.516Z,68.86
2022-10-28T04:49:26.539Z,68.90
2022-10-28T04:50:28.557Z,68.88
2022-10-28T04:51:31.446Z,68.25
2022-10-28T04:52:33.405Z,69.23
2022-10-28T04:53:37.570Z,69.20
2022-10-28T04:54:39.415Z,68.74
2022-10-28T04:55:43.376Z,69.34
2022-10-28T04:56:45.205Z,69.18
2022-10-28T04:57:54.919Z,68.23
2022-10-28T04:58:56.874Z,69.28
2022-10-28T04:59:59.735Z,68.33
2022-10-28T05:01:05.674Z,68.81
2022-10-28T05:02:08.738Z,68.71
2022-10-28T05:03:10.763Z,68.29
2022-10-28T05:04:13.812Z,69.49
2022-10-28T05:06:19.975Z,69.65
2022-10-28T05:07:23.557Z,68.90
2022-10-28T05:08:26.556Z,68.62
2022-10-28T05:09:29.672Z,69.14
2022-10-28T05:10:32.576Z,68.81
2022-10-28T05:11:34.393Z,69.27
2022-10-28T05:12:37.318Z,69.00
2022-10-28T05:13:40.182Z,68.63
2022-10-28T05:14:42.064Z,68.87
2022-10-28T05:15:44.919Z,68.87
2022-10-28T05:16:48.092Z,68.96
2022-10-28T05:17:51.302Z,68.76
2022-10-28T05:18:53.571Z,69.04
2022-10-28T05:19:56.499Z,68.97
2022-10-28T05:20:58.292Z,68.90
2022-10-28T05:22:01.022Z,68.85
2022-10-28T05:23:02.911Z,68.56
2022-10-28T05:24:06.441Z,68.91
2022-10-28T05:25:09.731Z,68.34
2022-10-28T05:26:12.540Z,68.87
2022-10-28T05:27:15.922Z,68.75
2022-10-28T05:28:19.457Z,69.36
2022-10-28T05:29:21.241Z,68.46
2022-10-28T05:30:24.008Z,68.96
2022-10-28T05:31:25.776Z,69.48
2022-10-28T05:32:28.654Z,69.09
2022-10-28T05:33:31.631Z,68.16
2022-10-28T05:34:33.453Z,69.24
2022-10-28T05:35:36.301Z,68.43
2022-10-28T05:36:38.536Z,68.43
2022-10-28T05:37:41.429Z,68.75
2022-10-28T05:38:45.409Z,68.89
2022-10-28T05:39:48.275Z,68.57
2022-10-28T05:40:51.530Z,68.98
2022-10-28T05:41:54.361Z,69.21
2022-10-28T05:42:56.378Z,69.50
2022-10-28T05:43:59.375Z,68.72
2022-10-28T05:45:02.205Z,68.79
2022-10-28T05:46:05.035Z,68.96
2022-10-28T05:47:06.904Z,68.89
2022-10-28T05:48:09.833Z,68.95
2022-10-28T05:49:11.632Z,69.47
2022-10-28T05:50:15.927Z,69.91
2022-10-28T05:51:18.722Z,68.98
2022-10-28T05:52:20.687Z,68.87
2022-10-28T05:53:23.455Z,69.46
2022-10-28T05:54:25.280Z,68.99
2022-10-28T05:55:29.680Z,68.85
2022-10-28T05:56:32.957Z,69.30
2022-10-28T05:57:36.315Z,69.13
2022-10-28T05:58:39.222Z,69.09
2022-10-28T05:59:41.018Z,69.92
2022-10-28T06:00:43.775Z,68.98
2022-10-28T06:01:45.658Z,69.88
2022-10-28T06:02:48.531Z,69.65
2022-10-28T06:03:51.106Z,68.69
2022-10-28T06:04:54.266Z,69.13
2022-10-28T06:05:58.674Z,69.48
2022-10-28T06:07:00.561Z,68.66
2022-10-28T06:08:06.547Z,69.08
2022-10-28T06:09:08.446Z,69.89
2022-10-28T06:10:12.673Z,69.07
2022-10-28T06:11:12.971Z,69.37
2022-10-28T06:12:17.340Z,69.60
2022-10-28T06:13:20.816Z,68.83
2022-10-28T06:14:22.577Z,69.09
2022-10-28T06:15:25.816Z,69.66
2022-10-28T06:16:27.686Z,68.68
2022-10-28T06:17:30.564Z,69.31
2022-10-28T06:18:33.883Z,68.98
2022-10-28T06:19:35.736Z,68.98
2022-10-28T06:20:38.539Z,69.67
2022-10-28T06:21:40.514Z,68.45
2022-10-28T06:22:47.271Z,69.24
2022-10-28T06:23:49.895Z,69.08
2022-10-28T06:24:52.687Z,68.39
2022-10-28T06:27:04.120Z,68.23
2022-10-28T06:28:10.359Z,68.88
2022-10-28T06:29:13.549Z,68.86
2022-10-28T06:30:15.443Z,69.08
2022-10-28T06:31:18.239Z,68.89
2022-10-28T06:32:20.133Z,68.04
2022-10-28T06:33:23.050Z,68.48
2022-10-28T06:34:24.839Z,68.08
2022-10-28T06:35:27.642Z,68.53
2022-10-28T06:36:30.628Z,67.88
2022-10-28T06:37:32.550Z,68.49
2022-10-28T06:38:35.412Z,67.85
2022-10-28T06:39:38.284Z,67.91
2022-10-28T06:40:41.138Z,68.32
2022-10-28T06:41:43.069Z,68.76
2022-10-28T06:42:45.907Z,68.77
2022-10-28T06:43:49.173Z,68.12
2022-10-28T06:44:53.116Z,68.27
2022-10-28T06:45:55.932Z,68.76
2022-10-28T06:47:00.238Z,69.06
2022-10-28T06:48:05.722Z,68.66
2022-10-28T06:49:09.148Z,68.78
2022-10-28T06:50:11.089Z,68.56
2022-10-28T06:51:13.898Z,68.73
2022-10-28T06:52:16.989Z,68.46
2022-10-28T06:53:19.809Z,68.71
2022-10-28T06:54:22.557Z,69.15
2022-10-28T06:55:25.844Z,68.38
2022-10-28T06:56:28.697Z,69.05
2022-10-28T06:57:31.410Z,68.98
2022-10-28T06:58:34.229Z,68.56
2022-10-28T06:59:37.429Z,68.50
2022-10-28T07:00:40.327Z,68.30
2022-10-28T07:01:42.307Z,68.09
2022-10-28T07:02:45.565Z,68.84
2022-10-28T07:03:49.137Z,67.95
2022-10-28T07:04:50.933Z,68.53
2022-10-28T07:05:53.776Z,69.04
2022-10-28T07:06:56.046Z,68.42
2022-10-28T07:07:58.878Z,68.66
2022-10-28T07:09:02.249Z,69.08
2022-10-28T07:10:05.939Z,68.77
2022-10-28T07:11:10.324Z,68.98
2022-10-28T07:12:13.220Z,69.60
2022-10-28T07:13:15.112Z,69.49
2022-10-28T07:14:18.121Z,69.58
2022-10-28T07:15:21.564Z,69.41
2022-10-28T07:16:25.605Z,69.29
2022-10-28T07:17:27.495Z,69.33
2022-10-28T07:18:31.178Z,68.92
2022-10-28T07:19:33.362Z,69.21
2022-10-28T07:20:36.199Z,68.42
2022-10-28T07:21:38.141Z,68.88
2022-10-28T07:22:41.007Z,68.22
2022-10-28T07:23:43.911Z,68.96
2022-10-28T07:24:46.874Z,68.83
2022-10-28T07:27:02.220Z,68.36
2022-10-28T07:28:04.554Z,68.05
2022-10-28T07:29:07.485Z,68.07
2022-10-28T07:30:10.957Z,67.79
2022-10-28T07:31:15.428Z,68.17
2022-10-28T07:32:17.565Z,67.90
2022-10-28T07:33:20.697Z,67.47
2022-10-28T07:34:26.825Z,67.78
2022-10-28T07:35:31.751Z,68.06
2022-10-28T07:36:34.764Z,67.42
2022-10-28T07:37:38.333Z,67.69
2022-10-28T07:38:41.264Z,68.02
2022-10-28T07:39:44.412Z,67.89
2022-10-28T07:40:47.568Z,67.70
2022-10-28T07:41:50.424Z,68.01
2022-10-28T07:42:52.555Z,67.82
2022-10-28T07:43:56.136Z,67.65
2022-10-28T07:44:58.024Z,67.56
2022-10-28T07:46:02.284Z,67.87
2022-10-28T07:47:05.640Z,68.38
2022-10-28T07:48:08.785Z,68.41
2022-10-28T07:49:10.793Z,68.40
2022-10-28T07:50:14.096Z,68.64
2022-10-28T07:51:17.309Z,69.00
2022-10-28T07:52:20.375Z,68.92
2022-10-28T07:53:24.843Z,69.55
2022-10-28T07:54:31.934Z,69.41
2022-10-28T07:55:34.865Z,69.58
2022-10-28T07:56:36.707Z,69.43
2022-10-28T07:57:39.967Z,69.90
2022-10-28T07:58:43.310Z,70.22
2022-10-28T07:59:46.320Z,70.56
2022-10-28T08:00:49.279Z,71.08
2022-10-28T08:01:52.309Z,71.41
2022-10-28T08:02:55.598Z,70.99
2022-10-28T08:03:58.634Z,71.72
2022-10-28T08:05:02.279Z,71.67
2022-10-28T08:06:07.844Z,71.74
2022-10-28T08:07:10.837Z,71.11
2022-10-28T08:08:13.413Z,71.69
2022-10-28T08:09:17.341Z,71.74
2022-10-28T08:10:19.377Z,71.45
2022-10-28T08:11:23.863Z,71.71
2022-10-28T08:12:28.260Z,72.22
2022-10-28T08:13:34.927Z,72.52
2022-10-28T08:14:39.663Z,73.31
2022-10-28T08:15:41.572Z,72.91
2022-10-28T08:16:44.682Z,72.89
2022-10-28T08:17:52.750Z,73.18
2022-10-28T08:18:56.921Z,72.84
2022-10-28T08:19:59.878Z,72.73
2022-10-28T08:21:04.143Z,73.26
2022-10-28T08:22:08.373Z,73.27
2022-10-28T08:23:10.389Z,73.15
2022-10-28T08:24:13.502Z,73.32
2022-10-28T08:25:15.621Z,73.65
2022-10-28T08:26:18.556Z,73.49
2022-10-28T08:27:20.758Z,73.51
2022-10-28T08:28:24.041Z,73.65
2022-10-28T08:29:29.048Z,73.68
2022-10-28T08:30:40.335Z,73.37
2022-10-28T08:31:53.474Z,73.84
2022-10-28T08:32:56.049Z,73.62
2022-10-28T08:34:00.912Z,73.82
2022-10-28T08:35:04.510Z,73.56
2022-10-28T08:36:08.280Z,73.67
2022-10-28T08:37:11.349Z,73.64
2022-10-28T08:38:14.337Z,73.95
2022-10-28T08:39:17.382Z,73.69
2022-10-28T08:40:26.848Z,73.11
2022-10-28T08:41:37.178Z,73.12
2022-10-28T08:42:47.406Z,73.50
2022-10-28T08:44:06.196Z,73.47
2022-10-28T08:45:24.406Z,73.76
2022-10-28T08:46:42.425Z,74.02
2022-10-28T08:47:54.514Z,74.32
2022-10-28T08:48:57.973Z,74.35
2022-10-28T08:50:11.800Z,75.39
2022-10-28T08:51:18.605Z,75.12
2022-10-28T08:52:28.542Z,75.56
2022-10-28T08:53:35.823Z,75.86
2022-10-28T08:54:47.257Z,75.42
2022-10-28T08:55:52.447Z,75.62
2022-10-28T08:56:56.174Z,75.11
2022-10-28T08:58:04.011Z,75.32
2022-10-28T08:59:13.154Z,75.06
2022-10-28T09:00:22.971Z,74.91
2022-10-28T09:01:36.473Z,75.27
2022-10-28T09:02:51.023Z,76.32
2022-10-28T09:03:54.668Z,76.33
2022-10-28T09:05:03.404Z,77.18
2022-10-28T09:06:10.250Z,77.08
2022-10-28T09:07:16.985Z,77.45
2022-10-28T09:08:23.927Z,77.41
2022-10-28T09:09:26.900Z,77.44
2022-10-28T09:11:07.821Z,77.44
2022-10-28T09:12:26.149Z,76.61
2022-10-28T09:13:42.326Z,76.57
2022-10-28T09:15:02.289Z,76.59
2022-10-28T09:16:15.294Z,76.63
2022-10-28T09:17:21.083Z,76.56
2022-10-28T09:18:36.653Z,76.32
2022-10-28T09:19:47.464Z,76.13
2022-10-28T09:20:53.809Z,76.20
2022-10-28T09:22:11.140Z,75.66
2022-10-28T09:23:21.976Z,75.14
2022-10-28T09:24:29.827Z,74.37
2022-10-28T09:25:42.646Z,73.88
2022-10-28T09:26:54.211Z,73.50
2022-10-28T09:28:19.225Z,73.79
2022-10-28T09:29:39.203Z,73.37
2022-10-28T09:30:53.162Z,73.42
2022-10-28T09:32:02.444Z,73.77
2022-10-28T09:33:18.004Z,73.67
2022-10-28T09:34:30.347Z,73.34
2022-10-28T09:35:37.693Z,73.21
2022-10-28T09:36:44.676Z,73.15
2022-10-28T09:37:53.657Z,72.82
2022-10-28T09:38:58.708Z,72.88
2022-10-28T09:40:07.148Z,72.83
2022-10-28T09:41:15.246Z,72.60
2022-10-28T09:42:25.098Z,73.06
2022-10-28T09:43:30.948Z,73.31
2022-10-28T09:44:41.726Z,72.63
2022-10-28T09:45:47.515Z,72.38
2022-10-28T09:46:53.578Z,72.53
2022-10-28T09:47:59.545Z,72.73
2022-10-28T09:49:06.010Z,72.82
2022-10-28T09:50:16.983Z,72.29
2022-10-28T09:51:29.819Z,72.30
2022-10-28T09:52:40.156Z,72.31
2022-10-28T09:53:48.173Z,72.41
2022-10-28T09:54:53.242Z,71.47
2022-10-28T09:55:55.821Z,71.45
2022-10-28T09:56:58.739Z,71.73
2022-10-28T09:58:03.519Z,71.56
2022-10-28T09:59:06.353Z,71.25
2022-10-28T10:00:13.846Z,70.99
2022-10-28T10:01:19.065Z,70.77
2022-10-28T10:02:29.427Z,71.07
2022-10-28T10:03:31.733Z,71.08
2022-10-28T10:04:35.696Z,71.62
2022-10-28T10:05:41.382Z,70.61
2022-10-28T10:06:45.179Z,69.16
2022-10-28T10:07:52.216Z,68.66
2022-10-28T10:08:57.249Z,66.35
2022-10-28T10:10:06.267Z,66.88
2022-10-28T10:11:18.489Z,66.73
2022-10-28T10:12:20.857Z,66.14
2022-10-28T10:13:28.400Z,65.63
2022-10-28T10:14:36.884Z,65.94
2022-10-28T10:15:44.574Z,65.01
2022-10-28T10:16:50.845Z,64.71
2022-10-28T10:17:54.364Z,64.66
2022-10-28T10:19:02.186Z,65.07
2022-10-28T10:20:08.745Z,65.16
2022-10-28T10:21:11.523Z,65.63
2022-10-28T10:22:29.552Z,65.39
2022-10-28T10:23:34.163Z,65.79
2022-10-28T10:24:37.606Z,65.74
2022-10-28T10:25:40.582Z,65.78
2022-10-28T10:26:43.413Z,65.45
2022-10-28T10:27:52.292Z,65.48
2022-10-28T10:28:55.469Z,64.90
2022-10-28T10:29:58.844Z,64.92
2022-10-28T10:31:04.314Z,65.28
2022-10-28T10:32:15.894Z,65.90
2022-10-28T10:33:22.816Z,65.76
2022-10-28T10:34:30.100Z,66.55
2022-10-28T10:35:35.274Z,65.28
2022-10-28T10:36:38.064Z,65.77
2022-10-28T10:37:45.038Z,66.00
2022-10-28T10:38:48.896Z,66.30
2022-10-28T10:40:06.962Z,65.97
2022-10-28T10:41:09.789Z,65.96
2022-10-28T10:42:22.474Z,65.72
2022-10-28T10:43:31.842Z,65.25
2022-10-28T10:44:35.725Z,65.50
2022-10-28T10:45:39.529Z,65.37
2022-10-28T10:46:41.390Z,65.71
2022-10-28T10:47:44.387Z,65.85
2022-10-28T10:48:47.464Z,65.59
2022-10-28T10:49:49.833Z,66.27
2022-10-28T10:50:53.720Z,66.35
2022-10-28T10:51:57.650Z,66.43
2022-10-28T10:53:03.393Z,65.79
2022-10-28T10:54:06.351Z,65.83
2022-10-28T10:55:22.156Z,65.08
2022-10-28T10:56:27.483Z,65.11
2022-10-28T10:57:29.857Z,64.86
2022-10-28T10:58:35.827Z,64.38
2022-10-28T10:59:38.159Z,64.26
2022-10-28T11:00:50.961Z,64.01
2022-10-28T11:01:55.382Z,64.37
2022-10-28T11:02:58.672Z,65.18
2022-10-28T11:04:03.914Z,65.01
2022-10-28T11:05:09.799Z,65.30
2022-10-28T11:06:23.895Z,65.69
2022-10-28T11:07:28.289Z,65.14
2022-10-28T11:08:38.162Z,65.49
2022-10-28T11:09:43.172Z,65.35
2022-10-28T11:11:03.884Z,66.09
2022-10-28T11:12:16.094Z,65.75
2022-10-28T11:13:27.087Z,66.17
2022-10-28T11:14:32.283Z,66.36
2022-10-28T11:15:35.269Z,65.66
2022-10-28T11:16:56.749Z,64.93
2022-10-28T11:18:01.031Z,64.78
2022-10-28T11:19:20.453Z,65.41
2022-10-28T11:20:26.082Z,65.29
2022-10-28T11:21:43.267Z,64.63
2022-10-28T11:22:55.094Z,65.89
2022-10-28T11:24:12.024Z,65.26
2022-10-28T11:25:33.325Z,65.31
2022-10-28T11:26:45.217Z,65.11
2022-10-28T11:28:01.676Z,64.87
2022-10-28T11:29:11.086Z,64.02
2022-10-28T11:30:17.100Z,63.71
2022-10-28T11:31:39.704Z,63.72
2022-10-28T11:33:02.249Z,63.36
2022-10-28T11:34:24.364Z,63.11
2022-10-28T11:35:38.171Z,63.60
2022-10-28T11:36:51.471Z,63.29
2022-10-28T11:38:09.626Z,63.46
2022-10-28T11:39:34.723Z,63.82
2022-10-28T11:40:48.313Z,64.13
2022-10-28T11:42:09.089Z,63.54
2022-10-28T11:43:23.177Z,63.33
2022-10-28T11:44:41.024Z,63.31
2022-10-28T11:45:51.320Z,63.98
2022-10-28T11:47:05.255Z,63.84
2022-10-28T11:48:22.112Z,64.21
2022-10-28T11:50:03.511Z,63.40
2022-10-28T11:51:18.029Z,63.08
2022-10-28T11:52:32.830Z,63.27
2022-10-28T11:53:56.465Z,63.31
2022-10-28T11:55:14.462Z,63.07
2022-10-28T11:56:27.508Z,62.92
2022-10-28T11:57:46.720Z,62.89
2022-10-28T11:58:57.629Z,62.73
2022-10-28T12:00:16.119Z,63.01
2022-10-28T12:01:37.483Z,62.34
2022-10-28T12:02:56.920Z,61.70
2022-10-28T12:04:23.235Z,60.92
2022-10-28T12:05:31.481Z,61.83
2022-10-28T12:06:58.640Z,61.34
2022-10-28T12:08:22.263Z,59.70
2022-10-28T12:09:33.534Z,60.09
2022-10-28T12:10:46.838Z,59.73
2022-10-28T12:12:06.141Z,60.06
2022-10-28T12:13:18.974Z,60.19
2022-10-28T12:14:30.044Z,60.03
2022-10-28T12:15:37.070Z,60.00
2022-10-28T12:16:48.173Z,59.68
2022-10-28T12:17:59.036Z,59.70
2022-10-28T12:19:06.662Z,59.80
2022-10-28T12:20:15.833Z,60.30
2022-10-28T12:21:29.248Z,59.77
2022-10-28T12:22:38.041Z,59.81
2022-10-28T12:23:43.283Z,59.29
2022-10-28T12:24:46.809Z,59.36
2022-10-28T12:25:52.599Z,59.01
2022-10-28T12:26:58.510Z,57.79
2022-10-28T12:28:04.536Z,57.18
2022-10-28T12:29:15.817Z,57.52
2022-10-28T12:30:22.992Z,57.58
2022-10-28T12:31:29.193Z,56.95
2022-10-28T12:32:35.411Z,57.31
2022-10-28T12:33:43.886Z,56.92
2022-10-28T12:34:50.225Z,56.44
2022-10-28T12:35:59.560Z,56.25
2022-10-28T12:37:07.317Z,56.35
2022-10-28T12:38:16.298Z,56.02
2022-10-28T12:39:21.388Z,56.77
2022-10-28T12:40:27.998Z,56.64
2022-10-28T12:41:48.022Z,55.17
2022-10-28T12:42:56.492Z,55.72
2022-10-28T12:44:03.928Z,57.62
2022-10-28T12:45:14.933Z,61.27
2022-10-28T12:46:24.601Z,63.04
2022-10-28T12:47:32.229Z,64.57
2022-10-28T12:48:41.670Z,68.79
2022-10-28T12:49:55.714Z,70.46
2022-10-28T12:51:04.544Z,71.82
2022-10-28T12:52:16.591Z,72.38
2022-10-28T12:53:35.410Z,72.40
2022-10-28T12:54:52.671Z,73.49
2022-10-28T12:56:00.484Z,73.18
2022-10-28T12:57:09.819Z,73.94
2022-10-28T12:58:18.625Z,73.57
2022-10-28T12:59:29.171Z,73.79
2022-10-28T13:00:37.290Z,74.74
2022-10-28T13:01:41.080Z,75.14
2022-10-28T13:02:48.961Z,76.18
2022-10-28T13:03:52.603Z,76.57
2022-10-28T13:04:54.970Z,77.03
2022-10-28T13:06:23.003Z,78.46
2022-10-28T13:07:42.027Z,77.99
2022-10-28T13:10:18.830Z,77.25
2022-10-28T13:11:39.639Z,77.37
2022-10-28T13:13:02.133Z,77.75
2022-10-28T13:14:12.355Z,76.88
2022-10-28T13:15:26.689Z,76.89
2022-10-28T13:17:02.180Z,77.37
2022-10-28T13:18:26.922Z,77.66
2022-10-28T13:20:00.025Z,77.80
2022-10-28T13:21:14.701Z,77.47
2022-10-28T13:22:31.512Z,77.33
2022-10-28T13:23:41.839Z,77.58
2022-10-28T13:24:54.284Z,77.40
2022-10-28T13:26:08.851Z,78.15
2022-10-28T13:27:13.327Z,78.14
2022-10-28T13:28:21.040Z,78.49
2022-10-28T13:29:27.060Z,78.04
2022-10-28T13:30:31.934Z,78.66
2022-10-28T13:31:40.772Z,77.04
2022-10-28T13:32:44.601Z,78.44
2022-10-28T13:33:52.282Z,78.68
2022-10-28T13:34:54.321Z,78.39
2022-10-28T13:36:12.852Z,78.41
2022-10-28T13:37:20.348Z,78.51
2022-10-28T13:38:25.946Z,77.15
2022-10-28T13:39:43.143Z,78.12
2022-10-28T13:41:27.952Z,78.44
2022-10-28T13:42:55.805Z,78.47
2022-10-28T13:44:23.099Z,78.77
2022-10-28T13:45:48.343Z,79.11
2022-10-28T13:47:26.218Z,78.03
2022-10-28T13:48:49.229Z,77.82
2022-10-28T13:50:35.344Z,77.26
2022-10-28T13:51:47.115Z,76.95
2022-10-28T13:53:36.197Z,77.77
2022-10-28T13:54:54.722Z,77.34
2022-10-28T13:55:57.810Z,77.93
2022-10-28T13:57:08.475Z,77.95
2022-10-28T13:58:22.126Z,78.51
2022-10-28T13:59:41.225Z,78.27
2022-10-28T14:00:43.178Z,77.96
2022-10-28T14:02:01.257Z,78.29
2022-10-28T14:03:19.701Z,78.11
2022-10-28T14:04:26.544Z,77.93
2022-10-28T14:05:54.867Z,78.44
2022-10-28T14:07:16.205Z,78.21
2022-10-28T14:08:22.776Z,78.47
2022-10-28T14:09:30.059Z,78.31
2022-10-28T14:10:34.203Z,77.79
2022-10-28T14:11:36.156Z,77.85
2022-10-28T14:12:43.697Z,78.41
2022-10-28T14:13:49.496Z,78.33
2022-10-28T14:15:00.787Z,78.33
2022-10-28T14:16:23.444Z,78.14
2022-10-28T14:17:29.751Z,78.16
2022-10-28T14:18:48.187Z,77.97
2022-10-28T14:19:53.428Z,78.58
2022-10-28T14:21:02.308Z,78.20
2022-10-28T14:22:07.580Z,78.23
2022-10-28T14:23:52.301Z,78.42
2022-10-28T14:24:55.252Z,78.46
2022-10-28T14:26:04.461Z,78.59
2022-10-28T14:27:28.037Z,78.28
2022-10-28T14:28:56.764Z,78.61
2022-10-28T14:30:23.010Z,79.27
2022-10-28T14:31:45.152Z,78.88